»·PEaware :: SKW5433 KXWA-KDEN

SKW5433 :: KXWA-KDEN

FLIGHT INFORMATION

Flight Status: Arrived
Operator:
SkyWest Airlines
More flights by this operator :: More flights under this callsign
Pilot: Matthew M. (8235)
Aircraft: CANADAIR CL-600 CRJ-200
(CRJ2)
More flights by this aircraft type
Origin: KXWA Williston Basin International Airport
United States
Destination: KDEN Denver Intl
United States
More flights between these airports :: More routes between these airports
Route: ISN4 ISN NYTRO AALLE1
File this flight plan on PilotEdge
Remarks:
Altitude:
(Current/Filed)
37,000ft
Speed:
(Current/Filed)
381kts
Departed: 11-May-20 04:31 PM
Arrived: 11-May-20 05:54 PM
Distance/Time
Traveled:
506nm/1:23
Distance/Time
To Go:
Arrived

Flight Plot

Page will automatically refresh every two minutes.


Map Options




Map Legend


Flown Route
Filed Route
Departure Airport
Arrival Airport
Navaid (VOR, NDB)
Fix

Horizontal Profiles

Position Reports

Time Latitude Longitude Heading Altitude Ground
Speed
11-May-20 16:07 48.258579 -103.743206 59 2358ft 0kts
11-May-20 16:08 48.258579 -103.743206 59 2358ft 0kts
11-May-20 16:09 48.258579 -103.743206 59 2358ft 0kts
11-May-20 16:10 48.258579 -103.743206 59 2358ft 0kts
11-May-20 16:11 48.258579 -103.743206 59 2358ft 0kts
11-May-20 16:12 48.258579 -103.743206 59 2358ft 0kts
11-May-20 16:13 48.258579 -103.743206 59 2358ft 0kts
11-May-20 16:14 48.258579 -103.743206 59 2358ft 0kts
11-May-20 16:15 48.258579 -103.743206 59 2358ft 0kts
11-May-20 16:16 48.258579 -103.743206 59 2358ft 0kts
11-May-20 16:17 48.258579 -103.743206 59 2358ft 0kts
11-May-20 16:18 48.258579 -103.743206 59 2358ft 0kts
11-May-20 16:19 48.258579 -103.743206 59 2358ft 0kts
11-May-20 16:20 48.258579 -103.743206 59 2358ft 0kts
11-May-20 16:21 48.258579 -103.743206 59 2358ft 0kts
11-May-20 16:22 48.258579 -103.743206 59 2358ft 0kts
11-May-20 16:23 48.258579 -103.743206 59 2358ft 0kts
11-May-20 16:24 48.258579 -103.743206 59 2358ft 0kts
11-May-20 16:25 48.258579 -103.743206 59 2358ft 0kts
11-May-20 16:26 48.258579 -103.743206 59 2358ft 0kts
11-May-20 16:27 48.257429 -103.743254 182 2358ft 14kts
11-May-20 16:28 48.255409 -103.743409 147 2358ft 16kts
11-May-20 16:29 48.252324 -103.743145 309 2358ft 3kts
11-May-20 16:30 48.269033 -103.759011 327 2939ft 159kts
11-May-20 16:31 48.312881 -103.817785 282 5521ft 272kts
11-May-20 16:32 48.267597 -103.890977 173 10079ft 292kts
11-May-20 16:33 48.225303 -103.801771 95 14248ft 302kts
11-May-20 16:34 48.163769 -103.724265 184 17681ft 346kts
11-May-20 16:35 48.063447 -103.731082 176 20501ft 384kts
11-May-20 16:36 47.951835 -103.720411 177 22958ft 425kts
11-May-20 16:37 47.830205 -103.708334 179 25376ft 459kts
11-May-20 16:38 47.698530 -103.695341 181 27802ft 486kts
11-May-20 16:39 47.560987 -103.681816 183 30237ft 504kts
11-May-20 16:40 47.420358 -103.668080 185 32601ft 509kts
11-May-20 16:41 47.277964 -103.654298 185 34046ft 513kts
11-May-20 16:42 47.134550 -103.640501 185 34631ft 518kts
11-May-20 16:43 46.991231 -103.626759 185 35234ft 516kts
11-May-20 16:44 46.850053 -103.613182 185 36503ft 494kts
11-May-20 16:45 46.712442 -103.600154 184 37244ft 505kts
11-May-20 16:46 46.571131 -103.586764 184 37310ft 510kts
11-May-20 16:47 46.430053 -103.573466 184 37420ft 510kts
11-May-20 16:48 46.287952 -103.560124 185 37246ft 496kts
11-May-20 16:49 46.151873 -103.547466 185 37244ft 476kts
11-May-20 16:50 46.020489 -103.535305 185 37246ft 472kts
11-May-20 16:51 45.892436 -103.523488 185 37246ft 471kts
11-May-20 16:52 45.760054 -103.511332 185 37243ft 469kts
11-May-20 16:53 45.630037 -103.499447 185 37243ft 469kts
11-May-20 16:54 45.499817 -103.487604 185 37245ft 468kts
11-May-20 16:55 45.369972 -103.475838 185 37228ft 469kts
11-May-20 16:56 45.239340 -103.464069 185 37192ft 470kts
11-May-20 16:57 45.108284 -103.452306 185 37194ft 472kts
11-May-20 16:58 44.977333 -103.440683 183 37192ft 471kts
11-May-20 16:59 44.847630 -103.429063 183 37188ft 466kts
11-May-20 17:00 44.718658 -103.417637 183 37190ft 463kts
11-May-20 17:01 44.590428 -103.406348 183 37195ft 462kts
11-May-20 17:02 44.461914 -103.395080 183 37200ft 461kts
11-May-20 17:03 44.334410 -103.383934 183 37227ft 460kts
11-May-20 17:04 44.207534 -103.372908 183 37235ft 461kts
11-May-20 17:06 44.078711 -103.361748 184 37222ft 461kts
11-May-20 17:07 43.950342 -103.350680 183 37204ft 462kts
11-May-20 17:08 43.822957 -103.339741 184 37193ft 460kts
11-May-20 17:09 43.695001 -103.328794 184 37199ft 459kts
11-May-20 17:10 43.567631 -103.317956 184 37176ft 458kts
11-May-20 17:11 43.440144 -103.307151 184 37174ft 458kts
11-May-20 17:12 43.312750 -103.296361 185 37180ft 461kts
11-May-20 17:13 43.182433 -103.285472 185 37200ft 475kts
11-May-20 17:14 43.049112 -103.274317 185 37202ft 484kts
11-May-20 17:15 42.913031 -103.263014 184 37204ft 489kts
11-May-20 17:16 42.780611 -103.251973 184 37192ft 490kts
11-May-20 17:17 42.645430 -103.240809 184 37196ft 491kts
11-May-20 17:18 42.508518 -103.229538 184 37196ft 491kts
11-May-20 17:19 42.370915 -103.218264 184 37193ft 491kts
11-May-20 17:20 42.234755 -103.207191 184 37184ft 492kts
11-May-20 17:21 42.097587 -103.196050 184 37182ft 492kts
11-May-20 17:22 41.961293 -103.185025 184 37171ft 491kts
11-May-20 17:23 41.824563 -103.174027 184 37162ft 491kts
11-May-20 17:24 41.688727 -103.163162 184 37164ft 488kts
11-May-20 17:25 41.552849 -103.155109 189 37162ft 481kts
11-May-20 17:26 41.419106 -103.160031 189 37153ft 481kts
11-May-20 17:26 41.307206 -103.164180 189 37135ft 482kts
11-May-20 17:28 41.150993 -103.169960 189 35224ft 478kts
11-May-20 17:28 41.040530 -103.180166 204 33706ft 462kts
11-May-20 17:29 40.941256 -103.270304 224 31912ft 424kts
11-May-20 17:30 40.849845 -103.362265 224 30125ft 416kts
11-May-20 17:31 40.757629 -103.454656 223 28259ft 408kts
11-May-20 17:32 40.667292 -103.544830 223 26406ft 402kts
11-May-20 17:33 40.579111 -103.632512 222 24560ft 390kts
11-May-20 17:34 40.492438 -103.718438 221 22736ft 382kts
11-May-20 17:35 40.425008 -103.818774 243 20944ft 363kts
11-May-20 17:36 40.373392 -103.931398 242 19396ft 345kts
11-May-20 17:37 40.326044 -104.034272 244 18371ft 318kts
11-May-20 17:38 40.323518 -104.148565 278 16887ft 315kts
11-May-20 17:39 40.331940 -104.246991 278 15612ft 245kts
11-May-20 17:40 40.339611 -104.336177 278 14405ft 246kts
11-May-20 17:41 40.344458 -104.425997 274 13209ft 251kts
11-May-20 17:42 40.347912 -104.518621 274 12067ft 252kts
11-May-20 17:43 40.342008 -104.603244 259 12042ft 222kts
11-May-20 17:44 40.314386 -104.669429 201 11892ft 228kts
11-May-20 17:45 40.250503 -104.682541 181 11003ft 246kts
11-May-20 17:46 40.179546 -104.683540 180 10045ft 250kts
11-May-20 17:47 40.111876 -104.684350 180 9673ft 248kts
11-May-20 17:48 40.041221 -104.685163 181 8317ft 250kts
11-May-20 17:49 39.979092 -104.685826 181 7103ft 167kts
11-May-20 17:50 39.941106 -104.686289 180 6319ft 119kts
11-May-20 17:51 39.907039 -104.686680 178 5681ft 131kts
11-May-20 17:52 39.877996 -104.687017 178 5439ft 61kts
11-May-20 17:53 39.870818 -104.683953 164 5439ft 15kts
11-May-20 17:54 39.864410 -104.683902 181 5439ft 33kts
11-May-20 17:55 39.860704 -104.681110 84 5439ft 14kts
11-May-20 17:56 39.860618 -104.672357 89 5439ft 23kts
11-May-20 17:57 39.859847 -104.664904 167 5439ft 11kts
11-May-20 17:58 39.858235 -104.667016 180 5439ft 2kts
11-May-20 17:59 39.858127 -104.667014 180 5439ft 0kts

Navigation Log

Ident Type
Flight plan parsing failed, navigation log unavailable